createdAt,value
2023-04-09T00:01:07.343Z,65.73
2023-04-09T00:03:34.088Z,60.27
2023-04-09T00:06:00.874Z,65.67
2023-04-09T00:08:27.238Z,61.77
2023-04-09T00:10:54.379Z,63.60
2023-04-09T00:13:35.664Z,64.50
2023-04-09T00:16:05.712Z,60.97
2023-04-09T00:18:32.261Z,65.20
2023-04-09T00:20:58.659Z,66.83
2023-04-09T00:23:25.411Z,61.77
2023-04-09T00:25:51.854Z,60.40
2023-04-09T00:28:18.213Z,66.93
2023-04-09T00:30:44.610Z,63.07
2023-04-09T00:33:11.001Z,58.70
2023-04-09T00:35:37.426Z,60.27
2023-04-09T00:38:03.867Z,60.50
2023-04-09T00:40:30.381Z,64.27
2023-04-09T00:42:56.981Z,58.80
2023-04-09T00:45:23.399Z,68.53
2023-04-09T00:47:50.087Z,61.77
2023-04-09T00:50:16.941Z,61.30
2023-04-09T00:52:43.437Z,59.67
2023-04-09T00:55:10.454Z,65.17
2023-04-09T00:57:37.514Z,64.87
2023-04-09T01:00:04.708Z,64.17
2023-04-09T01:02:31.356Z,63.37
2023-04-09T01:04:58.027Z,62.83
2023-04-09T01:07:39.507Z,58.47
2023-04-09T01:10:15.051Z,63.00
2023-04-09T01:12:51.337Z,68.10
2023-04-09T01:15:26.272Z,61.83
2023-04-09T01:18:12.217Z,61.90
2023-04-09T01:21:15.331Z,60.23
2023-04-09T01:24:07.538Z,63.57
2023-04-09T01:26:52.120Z,61.13
2023-04-09T01:29:20.427Z,59.30
2023-04-09T01:31:47.667Z,60.63
2023-04-09T01:34:14.516Z,58.20
2023-04-09T01:36:41.963Z,59.93
2023-04-09T01:39:08.892Z,63.23
2023-04-09T01:41:35.879Z,56.13
2023-04-09T01:44:03.464Z,61.47
2023-04-09T01:46:30.222Z,56.87
2023-04-09T01:48:57.091Z,59.37
2023-04-09T01:51:23.564Z,59.70
2023-04-09T01:53:49.938Z,62.70
2023-04-09T01:56:16.383Z,59.47
2023-04-09T01:58:42.773Z,63.17
2023-04-09T02:01:29.732Z,57.77
2023-04-09T02:04:10.517Z,65.90
2023-04-09T02:06:44.742Z,55.17
2023-04-09T02:09:12.554Z,58.90
2023-04-09T02:11:41.705Z,56.43
2023-04-09T02:14:09.266Z,59.83
2023-04-09T02:16:36.414Z,60.00
2023-04-09T02:19:02.965Z,61.30
2023-04-09T02:21:29.764Z,57.37
2023-04-09T02:23:56.375Z,59.27
2023-04-09T02:26:23.146Z,62.60
2023-04-09T02:28:49.580Z,54.47
2023-04-09T02:31:16.759Z,54.17
2023-04-09T02:33:43.317Z,54.27
2023-04-09T02:36:13.235Z,58.87
2023-04-09T02:38:42.836Z,61.27
2023-04-09T02:41:09.475Z,58.77
2023-04-09T02:43:35.958Z,58.17
2023-04-09T02:46:02.678Z,50.50
2023-04-09T02:48:29.091Z,51.87
2023-04-09T02:50:55.576Z,57.97
2023-04-09T02:53:22.128Z,54.00
2023-04-09T02:55:48.618Z,55.47
2023-04-09T02:58:15.268Z,59.90
2023-04-09T03:00:41.782Z,59.63
2023-04-09T03:03:08.381Z,54.53
2023-04-09T03:05:36.102Z,52.97
2023-04-09T03:08:02.502Z,55.30
2023-04-09T03:10:28.883Z,59.17
2023-04-09T03:12:55.305Z,50.33
2023-04-09T03:15:21.669Z,50.97
2023-04-09T03:17:48.082Z,48.23
2023-04-09T03:20:14.614Z,55.67
2023-04-09T03:22:41.020Z,48.87
2023-04-09T03:25:07.790Z,45.80
2023-04-09T03:27:34.186Z,47.20
2023-04-09T03:30:00.646Z,53.70
2023-04-09T03:32:27.101Z,52.23
2023-04-09T03:34:53.519Z,50.73
2023-04-09T03:37:19.926Z,52.13
2023-04-09T03:39:46.349Z,50.83
2023-04-09T03:42:12.722Z,50.20
2023-04-09T03:44:39.077Z,46.30
2023-04-09T03:47:05.474Z,47.70
2023-04-09T03:49:31.857Z,48.73
2023-04-09T03:51:58.261Z,49.37
2023-04-09T03:54:24.628Z,41.43
2023-04-09T03:56:51.033Z,40.53
2023-04-09T03:59:17.415Z,47.80
2023-04-09T04:01:44.226Z,44.97
2023-04-09T04:04:10.881Z,43.97
2023-04-09T04:06:37.326Z,37.57
2023-04-09T04:09:03.749Z,45.80
2023-04-09T04:11:30.297Z,46.00
2023-04-09T04:13:56.852Z,41.70
2023-04-09T04:16:23.375Z,42.90
2023-04-09T04:18:50.160Z,41.13
2023-04-09T04:21:17.263Z,42.37
2023-04-09T04:23:43.663Z,37.13
2023-04-09T04:26:10.860Z,42.03
2023-04-09T04:28:40.705Z,41.23
2023-04-09T04:31:11.257Z,39.67
2023-04-09T04:33:38.575Z,40.17
2023-04-09T04:36:10.643Z,38.03
2023-04-09T04:38:37.440Z,39.10
2023-04-09T04:41:04.023Z,42.77
2023-04-09T04:43:30.632Z,36.70
2023-04-09T04:45:57.086Z,39.27
2023-04-09T04:48:23.644Z,40.47
2023-04-09T04:51:00.309Z,37.83
2023-04-09T04:53:27.102Z,39.23
2023-04-09T04:55:53.924Z,41.80
2023-04-09T04:58:20.444Z,41.80
2023-04-09T05:00:47.159Z,38.03
2023-04-09T05:03:14.478Z,37.87
2023-04-09T05:05:41.037Z,38.67
2023-04-09T05:08:07.794Z,42.03
2023-04-09T05:10:34.161Z,42.27
2023-04-09T05:13:00.733Z,42.57
2023-04-09T05:15:27.190Z,37.73
2023-04-09T05:17:54.182Z,39.43
2023-04-09T05:20:20.795Z,39.67
2023-04-09T05:22:47.244Z,38.40
2023-04-09T05:25:16.099Z,39.70
2023-04-09T05:27:42.806Z,38.03
2023-04-09T05:30:09.501Z,37.77
2023-04-09T05:32:36.037Z,36.50
2023-04-09T05:35:02.468Z,38.80
2023-04-09T05:37:28.972Z,38.47
2023-04-09T05:39:56.256Z,42.80
2023-04-09T05:42:22.789Z,37.00
2023-04-09T05:44:49.174Z,38.57
2023-04-09T05:47:15.714Z,36.27
2023-04-09T05:49:42.211Z,35.67
2023-04-09T05:52:08.613Z,36.17
2023-04-09T05:54:35.580Z,35.73
2023-04-09T05:57:02.007Z,40.53
2023-04-09T05:59:28.383Z,38.83
2023-04-09T06:01:54.833Z,40.10
2023-04-09T06:04:21.552Z,36.80
2023-04-09T06:06:48.213Z,38.43
2023-04-09T06:09:14.752Z,40.23
2023-04-09T06:11:41.134Z,38.43
2023-04-09T06:14:07.700Z,37.07
2023-04-09T06:16:34.852Z,38.43
2023-04-09T06:19:01.258Z,43.37
2023-04-09T06:21:27.944Z,43.67
2023-04-09T06:23:54.688Z,40.40
2023-04-09T06:26:21.497Z,38.70
2023-04-09T06:28:47.895Z,39.77
2023-04-09T06:31:14.341Z,37.97
2023-04-09T06:33:41.247Z,35.73
2023-04-09T06:36:08.080Z,38.13
2023-04-09T06:38:34.555Z,35.23
2023-04-09T06:41:01.355Z,33.50
2023-04-09T06:43:27.896Z,32.47
2023-04-09T06:45:54.297Z,32.20
2023-04-09T06:48:20.782Z,35.93
2023-04-09T06:50:47.330Z,36.23
2023-04-09T06:53:15.018Z,30.87
2023-04-09T06:55:42.015Z,27.73
2023-04-09T06:58:08.478Z,30.50
2023-04-09T07:00:34.931Z,31.07
2023-04-09T07:03:01.642Z,31.50
2023-04-09T07:05:28.225Z,32.27
2023-04-09T07:07:54.672Z,32.57
2023-04-09T07:10:21.088Z,31.33
2023-04-09T07:12:47.567Z,29.27
2023-04-09T07:15:13.972Z,29.57
2023-04-09T07:17:41.014Z,29.27
2023-04-09T07:20:07.737Z,28.60
2023-04-09T07:22:34.095Z,29.97
2023-04-09T07:25:00.676Z,31.87
2023-04-09T07:27:27.811Z,29.17
2023-04-09T07:29:56.026Z,31.63
2023-04-09T07:32:23.182Z,29.23
2023-04-09T07:34:52.740Z,30.80
2023-04-09T07:37:19.545Z,31.17
2023-04-09T07:39:46.848Z,31.90
2023-04-09T07:42:13.719Z,28.60
2023-04-09T07:44:40.864Z,29.30
2023-04-09T07:47:08.005Z,31.17
2023-04-09T07:49:36.222Z,29.10
2023-04-09T07:52:02.632Z,33.90
2023-04-09T07:54:28.996Z,36.30
2023-04-09T07:56:56.311Z,32.53
2023-04-09T07:59:22.872Z,30.87
2023-04-09T08:01:49.335Z,29.97
2023-04-09T08:04:16.258Z,29.63
2023-04-09T08:06:42.736Z,30.83
2023-04-09T11:14:37.793Z,23.13
2023-04-09T11:17:04.374Z,23.43
2023-04-09T11:19:34.825Z,23.87
2023-04-09T11:22:04.813Z,25.33
2023-04-09T11:24:43.514Z,21.77
2023-04-09T11:27:10.134Z,22.13
2023-04-09T11:29:36.787Z,23.13
2023-04-09T11:32:05.435Z,24.30
2023-04-09T11:34:32.237Z,22.53
2023-04-09T11:36:59.707Z,24.43
2023-04-09T11:39:26.453Z,22.00
2023-04-09T11:41:53.265Z,22.90
2023-04-09T11:44:21.630Z,21.33
2023-04-09T11:46:49.171Z,23.27
2023-04-09T11:49:17.557Z,19.87
2023-04-09T11:51:44.131Z,23.83
2023-04-09T11:54:12.088Z,22.93
2023-04-09T11:56:38.479Z,24.90
2023-04-09T11:59:04.915Z,23.77
2023-04-09T12:01:34.685Z,22.03
2023-04-09T12:04:01.569Z,25.20
2023-04-09T12:06:28.517Z,23.83
2023-04-09T12:08:58.428Z,22.27
2023-04-09T12:11:29.356Z,20.03
2023-04-09T12:14:03.125Z,22.40
2023-04-09T12:16:35.744Z,21.37
2023-04-09T12:19:03.550Z,20.00
2023-04-09T12:21:54.529Z,22.90
2023-04-09T12:24:23.089Z,22.13
2023-04-09T12:26:49.742Z,20.70
2023-04-09T12:29:18.112Z,17.40
2023-04-09T12:31:45.329Z,18.97
2023-04-09T12:34:12.013Z,18.20
2023-04-09T12:36:39.798Z,18.27
2023-04-09T12:39:06.466Z,21.43
2023-04-09T12:41:32.858Z,19.47
2023-04-09T12:43:59.432Z,16.40
2023-04-09T12:46:27.204Z,15.27
2023-04-09T12:48:53.933Z,15.97
2023-04-09T12:51:20.686Z,19.50
2023-04-09T12:53:47.124Z,17.67
2023-04-09T12:56:13.556Z,15.77
2023-04-09T12:58:39.934Z,13.10
2023-04-09T13:01:06.619Z,12.87
2023-04-09T13:03:33.318Z,15.90
2023-04-09T13:05:59.842Z,11.67
2023-04-09T13:08:26.285Z,10.87
2023-04-09T13:10:52.716Z,9.97
2023-04-09T13:13:19.132Z,11.83
2023-04-09T13:15:46.214Z,14.33
2023-04-09T13:18:13.432Z,15.57
2023-04-09T13:20:40.245Z,17.00
2023-04-09T13:23:06.730Z,15.67
2023-04-09T13:25:33.224Z,15.50
2023-04-09T13:27:59.596Z,15.77
2023-04-09T13:30:26.069Z,16.13
2023-04-09T13:32:52.629Z,15.13
2023-04-09T13:35:19.197Z,16.23
2023-04-09T13:37:45.717Z,14.67
2023-04-09T13:40:12.401Z,16.37
2023-04-09T13:42:38.792Z,15.53
2023-04-09T13:45:05.943Z,15.27
2023-04-09T13:47:32.501Z,14.27
2023-04-09T13:49:58.925Z,17.30
2023-04-09T13:52:26.772Z,14.33
2023-04-09T13:54:56.475Z,15.23
2023-04-09T13:57:22.821Z,15.07
2023-04-09T14:14:30.192Z,18.10
2023-04-09T17:35:14.281Z,28.90
2023-04-09T17:37:40.715Z,28.80
2023-04-09T17:40:07.736Z,33.60
2023-04-09T17:42:34.162Z,31.70
2023-04-09T17:45:00.811Z,28.97
2023-04-09T17:47:27.311Z,29.27
2023-04-09T17:49:53.850Z,27.73
